sensor_id;sensor_type;location;lat;lon;timestamp;P1;durP1;ratioP1;P2;durP2;ratioP2
61675;SDS011;47574;52.090;5.244;2023-03-12T00:00:23;11.0;;;7.3;;
61675;SDS011;47574;52.090;5.244;2023-03-12T00:02:00;11.6;;;7.1;;
61675;SDS011;47574;52.090;5.244;2023-03-12T00:05:14;11.6;;;6.9;;
61675;SDS011;47574;52.090;5.244;2023-03-12T00:06:50;12.9;;;7.2;;
61675;SDS011;47574;52.090;5.244;2023-03-12T00:08:27;11.7;;;7.3;;
61675;SDS011;47574;52.090;5.244;2023-03-12T00:11:41;11.1;;;7.6;;
61675;SDS011;47574;52.090;5.244;2023-03-12T00:13:17;13.1;;;7.2;;
61675;SDS011;47574;52.090;5.244;2023-03-12T00:14:53;13.2;;;7.0;;
61675;SDS011;47574;52.090;5.244;2023-03-12T00:16:29;11.5;;;6.6;;
61675;SDS011;47574;52.090;5.244;2023-03-12T00:19:43;10.6;;;6.8;;
61675;SDS011;47574;52.090;5.244;2023-03-12T00:21:20;11.9;;;7.1;;
61675;SDS011;47574;52.090;5.244;2023-03-12T00:22:57;10.7;;;7.2;;
61675;SDS011;47574;52.090;5.244;2023-03-12T00:26:11;11.4;;;7.1;;
61675;SDS011;47574;52.090;5.244;2023-03-12T00:27:48;10.7;;;7.1;;
61675;SDS011;47574;52.090;5.244;2023-03-12T00:29:24;12.8;;;8.71;;
61675;SDS011;47574;52.090;5.244;2023-03-12T00:34:14;14.0;;;8.1;;
61675;SDS011;47574;52.090;5.244;2023-03-12T00:35:50;11.5;;;7.6;;
61675;SDS011;47574;52.090;5.244;2023-03-12T00:37:27;16.2;;;8.6;;
61675;SDS011;47574;52.090;5.244;2023-03-12T00:40:39;12.1;;;7.6;;
61675;SDS011;47574;52.090;5.244;2023-03-12T00:42:16;12.2;;;7.4;;
61675;SDS011;47574;52.090;5.244;2023-03-12T00:43:52;12.4;;;7.3;;
61675;SDS011;47574;52.090;5.244;2023-03-12T00:47:05;11.9;;;6.9;;
61675;SDS011;47574;52.090;5.244;2023-03-12T00:48:42;12.5;;;7.3;;
61675;SDS011;47574;52.090;5.244;2023-03-12T00:50:19;13.2;;;6.8;;
61675;SDS011;47574;52.090;5.244;2023-03-12T00:53:32;12.7;;;7.2;;
61675;SDS011;47574;52.090;5.244;2023-03-12T00:55:08;9.9;;;6.9;;
61675;SDS011;47574;52.090;5.244;2023-03-12T00:56:44;12.5;;;7.0;;
61675;SDS011;47574;52.090;5.244;2023-03-12T00:58:22;10.9;;;7.2;;
61675;SDS011;47574;52.090;5.244;2023-03-12T01:01:35;10.0;;;7.1;;
61675;SDS011;47574;52.090;5.244;2023-03-12T01:03:11;10.1;;;7.2;;
61675;SDS011;47574;52.090;5.244;2023-03-12T01:04:48;11.0;;;7.4;;
61675;SDS011;47574;52.090;5.244;2023-03-12T01:08:01;12.3;;;7.7;;
61675;SDS011;47574;52.090;5.244;2023-03-12T01:09:38;14.7;;;7.7;;
61675;SDS011;47574;52.090;5.244;2023-03-12T01:11:15;10.1;;;7.0;;
61675;SDS011;47574;52.090;5.244;2023-03-12T01:14:30;11.3;;;7.3;;
61675;SDS011;47574;52.090;5.244;2023-03-12T01:16:06;11.8;;;6.7;;
61675;SDS011;47574;52.090;5.244;2023-03-12T01:17:43;15.8;;;7.8;;
61675;SDS011;47574;52.090;5.244;2023-03-12T01:19:19;10.4;;;6.9;;
61675;SDS011;47574;52.090;5.244;2023-03-12T01:22:31;9.9;;;6.4;;
61675;SDS011;47574;52.090;5.244;2023-03-12T01:24:08;13.1;;;7.2;;
61675;SDS011;47574;52.090;5.244;2023-03-12T01:25:46;18.3;;;10.7;;
61675;SDS011;47574;52.090;5.244;2023-03-12T01:28:58;11.3;;;6.7;;
61675;SDS011;47574;52.090;5.244;2023-03-12T01:30:35;10.4;;;6.6;;
61675;SDS011;47574;52.090;5.244;2023-03-12T01:32:11;11.0;;;7.2;;
61675;SDS011;47574;52.090;5.244;2023-03-12T01:35:26;12.0;;;6.9;;
61675;SDS011;47574;52.090;5.244;2023-03-12T01:37:02;11.4;;;6.4;;
61675;SDS011;47574;52.090;5.244;2023-03-12T01:38:39;9.81;;;6.1;;
61675;SDS011;47574;52.090;5.244;2023-03-12T01:40:15;10.1;;;6.0;;
61675;SDS011;47574;52.090;5.244;2023-03-12T01:43:33;12.7;;;6.1;;
61675;SDS011;47574;52.090;5.244;2023-03-12T01:48:55;12.1;;;6.3;;
61675;SDS011;47574;52.090;5.244;2023-03-12T01:52:12;9.0;;;5.9;;
61675;SDS011;47574;52.090;5.244;2023-03-12T01:53:52;9.6;;;5.8;;
61675;SDS011;47574;52.090;5.244;2023-03-12T01:55:33;11.7;;;6.0;;
61675;SDS011;47574;52.090;5.244;2023-03-12T01:57:10;10.1;;;5.4;;
61675;SDS011;47574;52.090;5.244;2023-03-12T02:00:33;7.6;;;5.4;;
61675;SDS011;47574;52.090;5.244;2023-03-12T02:02:10;9.1;;;6.1;;
61675;SDS011;47574;52.090;5.244;2023-03-12T02:03:49;8.1;;;5.5;;
61675;SDS011;47574;52.090;5.244;2023-03-12T02:05:30;10.6;;;5.7;;
61675;SDS011;47574;52.090;5.244;2023-03-12T02:08:51;7.9;;;6.0;;
61675;SDS011;47574;52.090;5.244;2023-03-12T02:10:28;11.9;;;5.9;;
61675;SDS011;47574;52.090;5.244;2023-03-12T02:12:04;9.6;;;5.7;;
61675;SDS011;47574;52.090;5.244;2023-03-12T02:13:42;9.0;;;5.3;;
61675;SDS011;47574;52.090;5.244;2023-03-12T02:16:56;8.9;;;5.4;;
61675;SDS011;47574;52.090;5.244;2023-03-12T02:18:33;8.6;;;5.2;;
61675;SDS011;47574;52.090;5.244;2023-03-12T02:20:12;9.6;;;5.11;;
61675;SDS011;47574;52.090;5.244;2023-03-12T02:23:34;9.6;;;5.6;;
61675;SDS011;47574;52.090;5.244;2023-03-12T02:25:20;9.5;;;5.4;;
61675;SDS011;47574;52.090;5.244;2023-03-12T02:27:03;8.31;;;5.0;;
61675;SDS011;47574;52.090;5.244;2023-03-12T02:28:41;9.4;;;5.3;;
61675;SDS011;47574;52.090;5.244;2023-03-12T02:31:55;11.2;;;5.7;;
61675;SDS011;47574;52.090;5.244;2023-03-12T02:33:35;6.3;;;4.91;;
61675;SDS011;47574;52.090;5.244;2023-03-12T02:35:12;11.4;;;5.3;;
61675;SDS011;47574;52.090;5.244;2023-03-12T02:36:50;8.71;;;5.11;;
61675;SDS011;47574;52.090;5.244;2023-03-12T02:40:14;9.5;;;5.11;;
61675;SDS011;47574;52.090;5.244;2023-03-12T03:12:40;8.1;;;4.1;;
61675;SDS011;47574;52.090;5.244;2023-03-12T03:15:54;6.8;;;4.3;;
61675;SDS011;47574;52.090;5.244;2023-03-12T03:17:30;9.81;;;4.5;;
61675;SDS011;47574;52.090;5.244;2023-03-12T03:19:06;7.2;;;4.1;;
61675;SDS011;47574;52.090;5.244;2023-03-12T03:20:43;8.1;;;4.0;;
61675;SDS011;47574;52.090;5.244;2023-03-12T03:23:57;8.81;;;4.2;;
61675;SDS011;47574;52.090;5.244;2023-03-12T03:25:33;7.3;;;4.3;;
61675;SDS011;47574;52.090;5.244;2023-03-12T03:27:09;7.8;;;4.1;;
61675;SDS011;47574;52.090;5.244;2023-03-12T03:30:24;6.3;;;3.9;;
61675;SDS011;47574;52.090;5.244;2023-03-12T03:32:00;6.8;;;4.1;;
61675;SDS011;47574;52.090;5.244;2023-03-12T03:33:37;8.71;;;4.7;;
61675;SDS011;47574;52.090;5.244;2023-03-12T03:35:14;8.2;;;4.7;;
61675;SDS011;47574;52.090;5.244;2023-03-12T03:38:28;7.5;;;4.0;;
61675;SDS011;47574;52.090;5.244;2023-03-12T03:40:09;9.0;;;3.9;;
61675;SDS011;47574;52.090;5.244;2023-03-12T03:41:46;7.5;;;3.9;;
61675;SDS011;47574;52.090;5.244;2023-03-12T03:45:01;7.1;;;3.9;;
61675;SDS011;47574;52.090;5.244;2023-03-12T03:46:38;6.1;;;4.2;;
61675;SDS011;47574;52.090;5.244;2023-03-12T03:48:15;8.31;;;4.61;;
61675;SDS011;47574;52.090;5.244;2023-03-12T03:49:51;10.21;;;4.3;;
61675;SDS011;47574;52.090;5.244;2023-03-12T03:53:05;7.7;;;4.3;;
61675;SDS011;47574;52.090;5.244;2023-03-12T03:54:43;8.71;;;4.41;;
61675;SDS011;47574;52.090;5.244;2023-03-12T03:56:19;7.7;;;4.0;;
61675;SDS011;47574;52.090;5.244;2023-03-12T03:59:32;10.5;;;4.2;;
61675;SDS011;47574;52.090;5.244;2023-03-12T04:01:08;11.3;;;4.61;;
61675;SDS011;47574;52.090;5.244;2023-03-12T04:02:47;7.7;;;3.8;;
61675;SDS011;47574;52.090;5.244;2023-03-12T04:06:00;11.4;;;4.5;;
61675;SDS011;47574;52.090;5.244;2023-03-12T04:07:39;8.4;;;4.3;;
61675;SDS011;47574;52.090;5.244;2023-03-12T04:09:15;8.71;;;3.8;;
61675;SDS011;47574;52.090;5.244;2023-03-12T04:10:51;8.5;;;4.2;;
61675;SDS011;47574;52.090;5.244;2023-03-12T04:14:05;9.6;;;4.41;;
61675;SDS011;47574;52.090;5.244;2023-03-12T04:15:44;7.6;;;4.5;;
61675;SDS011;47574;52.090;5.244;2023-03-12T04:17:22;7.4;;;4.2;;
61675;SDS011;47574;52.090;5.244;2023-03-12T04:20:35;7.9;;;4.0;;
61675;SDS011;47574;52.090;5.244;2023-03-12T04:22:11;8.9;;;4.5;;
61675;SDS011;47574;52.090;5.244;2023-03-12T04:23:47;7.2;;;4.1;;
61675;SDS011;47574;52.090;5.244;2023-03-12T04:26:59;7.6;;;4.41;;
61675;SDS011;47574;52.090;5.244;2023-03-12T04:28:35;8.9;;;4.1;;
61675;SDS011;47574;52.090;5.244;2023-03-12T04:30:13;8.81;;;4.41;;
61675;SDS011;47574;52.090;5.244;2023-03-12T04:31:49;8.9;;;4.1;;
61675;SDS011;47574;52.090;5.244;2023-03-12T04:35:02;7.5;;;4.1;;
61675;SDS011;47574;52.090;5.244;2023-03-12T04:36:39;9.0;;;4.61;;
61675;SDS011;47574;52.090;5.244;2023-03-12T04:38:16;6.5;;;4.3;;
61675;SDS011;47574;52.090;5.244;2023-03-12T04:41:29;7.7;;;4.7;;
61675;SDS011;47574;52.090;5.244;2023-03-12T04:43:05;13.4;;;4.1;;
61675;SDS011;47574;52.090;5.244;2023-03-12T04:44:42;7.4;;;4.2;;
61675;SDS011;47574;52.090;5.244;2023-03-12T04:47:54;6.3;;;4.3;;
61675;SDS011;47574;52.090;5.244;2023-03-12T04:49:30;6.5;;;4.2;;
61675;SDS011;47574;52.090;5.244;2023-03-12T04:51:06;6.8;;;4.3;;
61675;SDS011;47574;52.090;5.244;2023-03-12T04:52:42;10.7;;;4.41;;
61675;SDS011;47574;52.090;5.244;2023-03-12T04:55:56;8.2;;;4.7;;
61675;SDS011;47574;52.090;5.244;2023-03-12T04:57:32;8.1;;;4.91;;
61675;SDS011;47574;52.090;5.244;2023-03-12T04:59:08;7.9;;;4.7;;
61675;SDS011;47574;52.090;5.244;2023-03-12T05:02:22;7.6;;;4.5;;
61675;SDS011;47574;52.090;5.244;2023-03-12T05:03:59;9.31;;;4.61;;
61675;SDS011;47574;52.090;5.244;2023-03-12T05:05:36;8.71;;;4.61;;
61675;SDS011;47574;52.090;5.244;2023-03-12T05:08:50;9.81;;;4.7;;
61675;SDS011;47574;52.090;5.244;2023-03-12T05:10:27;7.8;;;4.61;;
61675;SDS011;47574;52.090;5.244;2023-03-12T05:12:03;9.1;;;4.61;;
61675;SDS011;47574;52.090;5.244;2023-03-12T05:13:40;9.0;;;4.5;;
61675;SDS011;47574;52.090;5.244;2023-03-12T05:16:55;7.4;;;4.5;;
61675;SDS011;47574;52.090;5.244;2023-03-12T05:18:31;8.0;;;4.91;;
61675;SDS011;47574;52.090;5.244;2023-03-12T05:20:09;9.71;;;4.8;;
61675;SDS011;47574;52.090;5.244;2023-03-12T05:23:23;8.0;;;4.5;;
61675;SDS011;47574;52.090;5.244;2023-03-12T05:25:00;8.4;;;4.5;;
61675;SDS011;47574;52.090;5.244;2023-03-12T05:26:37;8.4;;;4.8;;
61675;SDS011;47574;52.090;5.244;2023-03-12T05:28:14;8.1;;;4.2;;
61675;SDS011;47574;52.090;5.244;2023-03-12T05:31:27;9.4;;;4.8;;
61675;SDS011;47574;52.090;5.244;2023-03-12T05:33:04;9.21;;;4.3;;
61675;SDS011;47574;52.090;5.244;2023-03-12T05:34:40;9.5;;;4.7;;
61675;SDS011;47574;52.090;5.244;2023-03-12T05:37:55;8.6;;;4.61;;
61675;SDS011;47574;52.090;5.244;2023-03-12T05:39:31;6.7;;;4.3;;
61675;SDS011;47574;52.090;5.244;2023-03-12T05:41:08;7.4;;;4.41;;
61675;SDS011;47574;52.090;5.244;2023-03-12T05:42:54;9.31;;;4.61;;
61675;SDS011;47574;52.090;5.244;2023-03-12T05:46:06;8.4;;;4.5;;
61675;SDS011;47574;52.090;5.244;2023-03-12T05:47:44;8.71;;;4.61;;
61675;SDS011;47574;52.090;5.244;2023-03-12T05:49:21;6.2;;;4.3;;
61675;SDS011;47574;52.090;5.244;2023-03-12T05:52:33;7.7;;;4.5;;
61675;SDS011;47574;52.090;5.244;2023-03-12T05:54:09;9.81;;;4.7;;
61675;SDS011;47574;52.090;5.244;2023-03-12T05:55:45;10.9;;;5.3;;
61675;SDS011;47574;52.090;5.244;2023-03-12T05:58:57;12.2;;;4.8;;
61675;SDS011;47574;52.090;5.244;2023-03-12T06:00:34;6.9;;;5.0;;
61675;SDS011;47574;52.090;5.244;2023-03-12T06:02:11;10.6;;;4.7;;
61675;SDS011;47574;52.090;5.244;2023-03-12T06:03:47;9.0;;;4.5;;
61675;SDS011;47574;52.090;5.244;2023-03-12T06:07:00;6.7;;;4.7;;
61675;SDS011;47574;52.090;5.244;2023-03-12T06:08:36;9.21;;;4.8;;
61675;SDS011;47574;52.090;5.244;2023-03-12T06:10:13;7.6;;;4.8;;
61675;SDS011;47574;52.090;5.244;2023-03-12T06:13:27;8.71;;;4.7;;
61675;SDS011;47574;52.090;5.244;2023-03-12T06:15:03;10.21;;;5.11;;
61675;SDS011;47574;52.090;5.244;2023-03-12T06:16:40;10.7;;;5.2;;
61675;SDS011;47574;52.090;5.244;2023-03-12T06:19:52;9.9;;;5.11;;
61675;SDS011;47574;52.090;5.244;2023-03-12T06:21:29;8.71;;;5.11;;
61675;SDS011;47574;52.090;5.244;2023-03-12T06:23:07;8.81;;;5.11;;
61675;SDS011;47574;52.090;5.244;2023-03-12T06:24:43;9.1;;;4.8;;
61675;SDS011;47574;52.090;5.244;2023-03-12T06:27:58;8.9;;;5.11;;
61675;SDS011;47574;52.090;5.244;2023-03-12T06:29:34;12.3;;;5.7;;
61675;SDS011;47574;52.090;5.244;2023-03-12T06:31:10;7.3;;;5.4;;
61675;SDS011;47574;52.090;5.244;2023-03-12T06:34:23;12.1;;;5.5;;
61675;SDS011;47574;52.090;5.244;2023-03-12T06:36:01;8.31;;;5.2;;
61675;SDS011;47574;52.090;5.244;2023-03-12T06:37:39;9.4;;;5.6;;
61675;SDS011;47574;52.090;5.244;2023-03-12T06:40:53;10.3;;;5.6;;
61675;SDS011;47574;52.090;5.244;2023-03-12T06:42:31;8.9;;;5.8;;
61675;SDS011;47574;52.090;5.244;2023-03-12T06:44:07;9.31;;;5.6;;
61675;SDS011;47574;52.090;5.244;2023-03-12T06:45:44;13.1;;;6.1;;
61675;SDS011;47574;52.090;5.244;2023-03-12T06:48:56;10.1;;;6.2;;
61675;SDS011;47574;52.090;5.244;2023-03-12T06:50:32;11.3;;;6.3;;
61675;SDS011;47574;52.090;5.244;2023-03-12T06:52:09;11.5;;;6.3;;
61675;SDS011;47574;52.090;5.244;2023-03-12T06:55:22;11.2;;;6.4;;
61675;SDS011;47574;52.090;5.244;2023-03-12T06:56:58;13.2;;;6.6;;
61675;SDS011;47574;52.090;5.244;2023-03-12T06:58:34;12.9;;;7.1;;
61675;SDS011;47574;52.090;5.244;2023-03-12T07:01:48;11.9;;;6.8;;
61675;SDS011;47574;52.090;5.244;2023-03-12T07:03:24;9.81;;;6.5;;
61675;SDS011;47574;52.090;5.244;2023-03-12T07:05:00;10.0;;;7.3;;
61675;SDS011;47574;52.090;5.244;2023-03-12T07:06:37;11.5;;;7.4;;
61675;SDS011;47574;52.090;5.244;2023-03-12T07:09:50;9.0;;;6.2;;
61675;SDS011;47574;52.090;5.244;2023-03-12T07:11:26;10.3;;;6.6;;
61675;SDS011;47574;52.090;5.244;2023-03-12T07:13:02;17.2;;;11.8;;
61675;SDS011;47574;52.090;5.244;2023-03-12T07:16:15;21.5;;;13.7;;
61675;SDS011;47574;52.090;5.244;2023-03-12T07:17:51;13.9;;;9.9;;
61675;SDS011;47574;52.090;5.244;2023-03-12T07:19:27;15.6;;;10.0;;
61675;SDS011;47574;52.090;5.244;2023-03-12T07:22:41;12.5;;;8.71;;
61675;SDS011;47574;52.090;5.244;2023-03-12T07:24:17;15.1;;;9.71;;
61675;SDS011;47574;52.090;5.244;2023-03-12T07:25:54;16.3;;;9.6;;
61675;SDS011;47574;52.090;5.244;2023-03-12T07:27:30;12.7;;;8.81;;
61675;SDS011;47574;52.090;5.244;2023-03-12T07:30:42;13.3;;;8.6;;
61675;SDS011;47574;52.090;5.244;2023-03-12T07:32:19;11.7;;;8.9;;
61675;SDS011;47574;52.090;5.244;2023-03-12T07:33:55;11.7;;;8.0;;
61675;SDS011;47574;52.090;5.244;2023-03-12T07:37:09;14.6;;;8.71;;
61675;SDS011;47574;52.090;5.244;2023-03-12T07:38:45;13.6;;;8.2;;
61675;SDS011;47574;52.090;5.244;2023-03-12T07:40:21;16.61;;;11.0;;
61675;SDS011;47574;52.090;5.244;2023-03-12T07:43:34;13.9;;;8.71;;
61675;SDS011;47574;52.090;5.244;2023-03-12T07:45:10;13.1;;;8.9;;
61675;SDS011;47574;52.090;5.244;2023-03-12T07:46:46;12.7;;;8.9;;
61675;SDS011;47574;52.090;5.244;2023-03-12T07:48:22;13.3;;;8.4;;
61675;SDS011;47574;52.090;5.244;2023-03-12T07:51:33;15.4;;;8.5;;
61675;SDS011;47574;52.090;5.244;2023-03-12T07:53:10;18.7;;;8.5;;
61675;SDS011;47574;52.090;5.244;2023-03-12T07:54:46;12.5;;;7.8;;
61675;SDS011;47574;52.090;5.244;2023-03-12T07:57:58;12.0;;;8.1;;
61675;SDS011;47574;52.090;5.244;2023-03-12T07:59:34;12.9;;;8.71;;
61675;SDS011;47574;52.090;5.244;2023-03-12T08:01:10;11.7;;;8.71;;
61675;SDS011;47574;52.090;5.244;2023-03-12T08:04:23;12.4;;;9.1;;
61675;SDS011;47574;52.090;5.244;2023-03-12T08:06:00;13.2;;;8.81;;
61675;SDS011;47574;52.090;5.244;2023-03-12T08:07:37;9.71;;;8.71;;
61675;SDS011;47574;52.090;5.244;2023-03-12T08:10:50;14.4;;;9.9;;
61675;SDS011;47574;52.090;5.244;2023-03-12T08:12:27;18.5;;;12.6;;
61675;SDS011;47574;52.090;5.244;2023-03-12T08:14:05;22.3;;;15.6;;
61675;SDS011;47574;52.090;5.244;2023-03-12T08:15:42;15.7;;;11.4;;
61675;SDS011;47574;52.090;5.244;2023-03-12T08:18:56;19.5;;;14.3;;
61675;SDS011;47574;52.090;5.244;2023-03-12T08:20:33;19.5;;;13.7;;
61675;SDS011;47574;52.090;5.244;2023-03-12T08:22:09;16.5;;;12.7;;
61675;SDS011;47574;52.090;5.244;2023-03-12T08:25:23;20.2;;;14.9;;
61675;SDS011;47574;52.090;5.244;2023-03-12T08:27:01;19.2;;;13.7;;
61675;SDS011;47574;52.090;5.244;2023-03-12T08:28:37;15.5;;;11.8;;
61675;SDS011;47574;52.090;5.244;2023-03-12T08:30:13;20.5;;;14.2;;
61675;SDS011;47574;52.090;5.244;2023-03-12T08:33:27;17.8;;;14.0;;
61675;SDS011;47574;52.090;5.244;2023-03-12T08:35:04;20.5;;;14.6;;
61675;SDS011;47574;52.090;5.244;2023-03-12T08:36:41;20.0;;;15.0;;
61675;SDS011;47574;52.090;5.244;2023-03-12T08:39:55;21.8;;;14.5;;
61675;SDS011;47574;52.090;5.244;2023-03-12T08:41:31;21.7;;;16.9;;
61675;SDS011;47574;52.090;5.244;2023-03-12T08:43:07;18.11;;;14.5;;
61675;SDS011;47574;52.090;5.244;2023-03-12T08:46:20;26.5;;;19.3;;
61675;SDS011;47574;52.090;5.244;2023-03-12T08:47:56;19.7;;;14.9;;
61675;SDS011;47574;52.090;5.244;2023-03-12T08:49:32;25.1;;;17.5;;
61675;SDS011;47574;52.090;5.244;2023-03-12T08:51:08;22.4;;;15.5;;
61675;SDS011;47574;52.090;5.244;2023-03-12T08:54:22;21.6;;;16.2;;
61675;SDS011;47574;52.090;5.244;2023-03-12T08:55:59;19.7;;;16.3;;
61675;SDS011;47574;52.090;5.244;2023-03-12T08:57:36;18.5;;;15.3;;
61675;SDS011;47574;52.090;5.244;2023-03-12T09:00:49;17.0;;;14.3;;
61675;SDS011;47574;52.090;5.244;2023-03-12T09:02:26;18.61;;;15.5;;
61675;SDS011;47574;52.090;5.244;2023-03-12T09:04:02;18.7;;;14.7;;
61675;SDS011;47574;52.090;5.244;2023-03-12T09:07:16;17.8;;;15.9;;
61675;SDS011;47574;52.090;5.244;2023-03-12T09:08:53;20.2;;;16.61;;
61675;SDS011;47574;52.090;5.244;2023-03-12T09:10:29;18.41;;;15.7;;
61675;SDS011;47574;52.090;5.244;2023-03-12T09:12:05;21.1;;;16.5;;
61675;SDS011;47574;52.090;5.244;2023-03-12T09:15:19;22.7;;;16.9;;
61675;SDS011;47574;52.090;5.244;2023-03-12T09:16:55;21.5;;;17.61;;
61675;SDS011;47574;52.090;5.244;2023-03-12T09:18:32;21.1;;;16.8;;
61675;SDS011;47574;52.090;5.244;2023-03-12T09:21:47;21.4;;;17.91;;
61675;SDS011;47574;52.090;5.244;2023-03-12T09:23:23;22.9;;;18.3;;
61675;SDS011;47574;52.090;5.244;2023-03-12T09:25:01;24.5;;;18.7;;
61675;SDS011;47574;52.090;5.244;2023-03-12T09:28:14;25.7;;;19.8;;
61675;SDS011;47574;52.090;5.244;2023-03-12T09:29:52;25.7;;;19.41;;
61675;SDS011;47574;52.090;5.244;2023-03-12T09:31:29;28.0;;;20.9;;
61675;SDS011;47574;52.090;5.244;2023-03-12T09:33:05;26.4;;;21.3;;
61675;SDS011;47574;52.090;5.244;2023-03-12T09:36:18;27.3;;;22.1;;
61675;SDS011;47574;52.090;5.244;2023-03-12T09:37:55;30.1;;;22.5;;
61675;SDS011;47574;52.090;5.244;2023-03-12T09:39:32;31.9;;;25.7;;
61675;SDS011;47574;52.090;5.244;2023-03-12T09:42:55;27.8;;;22.4;;
61675;SDS011;47574;52.090;5.244;2023-03-12T09:44:34;31.9;;;23.8;;
61675;SDS011;47574;52.090;5.244;2023-03-12T09:46:17;32.5;;;24.4;;
61675;SDS011;47574;52.090;5.244;2023-03-12T09:47:59;31.0;;;24.4;;
61675;SDS011;47574;52.090;5.244;2023-03-12T09:51:21;32.9;;;25.1;;
61675;SDS011;47574;52.090;5.244;2023-03-12T09:53:03;31.3;;;25.1;;
61675;SDS011;47574;52.090;5.244;2023-03-12T09:54:50;34.9;;;25.8;;
61675;SDS011;47574;52.090;5.244;2023-03-12T09:56:34;33.5;;;25.1;;
61675;SDS011;47574;52.090;5.244;2023-03-12T09:58:11;33.6;;;25.6;;
61675;SDS011;47574;52.090;5.244;2023-03-12T10:01:31;31.9;;;26.1;;
61675;SDS011;47574;52.090;5.244;2023-03-12T10:03:18;32.8;;;26.2;;
61675;SDS011;47574;52.090;5.244;2023-03-12T10:05:07;36.9;;;26.7;;
61675;SDS011;47574;52.090;5.244;2023-03-12T10:06:51;41.6;;;29.8;;
61675;SDS011;47574;52.090;5.244;2023-03-12T10:08:38;36.31;;;27.7;;
61675;SDS011;47574;52.090;5.244;2023-03-12T10:12:22;36.5;;;28.5;;
61675;SDS011;47574;52.090;5.244;2023-03-12T10:14:14;37.5;;;30.1;;
61675;SDS011;47574;52.090;5.244;2023-03-12T10:16:01;37.5;;;30.1;;
61675;SDS011;47574;52.090;5.244;2023-03-12T10:17:49;37.6;;;30.1;;
61675;SDS011;47574;52.090;5.244;2023-03-12T10:19:45;37.31;;;28.9;;
61675;SDS011;47574;52.090;5.244;2023-03-12T10:21:34;35.31;;;28.4;;
61675;SDS011;47574;52.090;5.244;2023-03-12T10:23:23;33.21;;;28.1;;
61675;SDS011;47574;52.090;5.244;2023-03-12T10:26:57;37.1;;;29.3;;
61675;SDS011;47574;52.090;5.244;2023-03-12T10:28:35;36.6;;;27.8;;
61675;SDS011;47574;52.090;5.244;2023-03-12T10:30:19;36.9;;;28.3;;
61675;SDS011;47574;52.090;5.244;2023-03-12T10:31:59;41.5;;;29.8;;
61675;SDS011;47574;52.090;5.244;2023-03-12T10:33:41;32.4;;;26.6;;
61675;SDS011;47574;52.090;5.244;2023-03-12T10:37:03;34.5;;;25.3;;
61675;SDS011;47574;52.090;5.244;2023-03-12T10:38:54;31.9;;;24.8;;
61675;SDS011;47574;52.090;5.244;2023-03-12T10:40:32;30.0;;;21.7;;
61675;SDS011;47574;52.090;5.244;2023-03-12T10:42:12;30.7;;;22.3;;
61675;SDS011;47574;52.090;5.244;2023-03-12T10:45:30;27.8;;;21.3;;
61675;SDS011;47574;52.090;5.244;2023-03-12T10:47:19;32.9;;;22.5;;
61675;SDS011;47574;52.090;5.244;2023-03-12T10:49:36;26.8;;;19.61;;
61675;SDS011;47574;52.090;5.244;2023-03-12T10:51:13;28.9;;;20.9;;
61675;SDS011;47574;52.090;5.244;2023-03-12T10:52:49;30.9;;;19.3;;
61675;SDS011;47574;52.090;5.244;2023-03-12T10:54:47;32.8;;;18.91;;
61675;SDS011;47574;52.090;5.244;2023-03-12T10:58:01;29.7;;;18.2;;
61675;SDS011;47574;52.090;5.244;2023-03-12T10:59:39;34.4;;;18.2;;
61675;SDS011;47574;52.090;5.244;2023-03-12T11:01:19;32.4;;;17.41;;
61675;SDS011;47574;52.090;5.244;2023-03-12T11:02:58;32.21;;;16.5;;
61675;SDS011;47574;52.090;5.244;2023-03-12T11:06:19;36.5;;;16.7;;
61675;SDS011;47574;52.090;5.244;2023-03-12T11:07:58;30.3;;;16.7;;
61675;SDS011;47574;52.090;5.244;2023-03-12T11:09:36;32.3;;;15.2;;
61675;SDS011;47574;52.090;5.244;2023-03-12T11:13:26;38.31;;;16.11;;
61675;SDS011;47574;52.090;5.244;2023-03-12T11:15:22;30.2;;;13.8;;
61675;SDS011;47574;52.090;5.244;2023-03-12T11:17:16;36.21;;;13.9;;
61675;SDS011;47574;52.090;5.244;2023-03-12T11:18:56;40.4;;;14.1;;
61675;SDS011;47574;52.090;5.244;2023-03-12T11:20:35;36.9;;;13.5;;
61675;SDS011;47574;52.090;5.244;2023-03-12T11:22:11;38.1;;;13.8;;
61675;SDS011;47574;52.090;5.244;2023-03-12T11:25:49;41.7;;;14.5;;
61675;SDS011;47574;52.090;5.244;2023-03-12T11:27:30;33.4;;;13.0;;
61675;SDS011;47574;52.090;5.244;2023-03-12T11:29:21;34.9;;;12.4;;
61675;SDS011;47574;52.090;5.244;2023-03-12T11:31:02;35.5;;;11.8;;
61675;SDS011;47574;52.090;5.244;2023-03-12T11:32:44;39.0;;;11.6;;
61675;SDS011;47574;52.090;5.244;2023-03-12T11:34:23;37.1;;;11.2;;
61675;SDS011;47574;52.090;5.244;2023-03-12T11:37:59;33.1;;;11.5;;
61675;SDS011;47574;52.090;5.244;2023-03-12T11:39:46;40.4;;;11.8;;
61675;SDS011;47574;52.090;5.244;2023-03-12T11:41:45;37.1;;;11.0;;
61675;SDS011;47574;52.090;5.244;2023-03-12T11:43:39;40.1;;;10.1;;
61675;SDS011;47574;52.090;5.244;2023-03-12T11:45:30;38.71;;;10.0;;
61675;SDS011;47574;52.090;5.244;2023-03-12T11:47:21;41.7;;;11.2;;
61675;SDS011;47574;52.090;5.244;2023-03-12T11:49:14;36.9;;;11.2;;
61675;SDS011;47574;52.090;5.244;2023-03-12T11:52:59;34.31;;;10.6;;
61675;SDS011;47574;52.090;5.244;2023-03-12T11:55:12;38.6;;;11.7;;
61675;SDS011;47574;52.090;5.244;2023-03-12T11:57:16;34.4;;;10.4;;
61675;SDS011;47574;52.090;5.244;2023-03-12T11:59:26;39.21;;;11.3;;
61675;SDS011;47574;52.090;5.244;2023-03-12T12:01:15;36.0;;;11.1;;
61675;SDS011;47574;52.090;5.244;2023-03-12T12:03:15;30.6;;;9.6;;
61675;SDS011;47574;52.090;5.244;2023-03-12T12:06:08;28.1;;;9.0;;
61675;SDS011;47574;52.090;5.244;2023-03-12T12:08:08;31.4;;;9.1;;
61675;SDS011;47574;52.090;5.244;2023-03-12T12:09:57;30.8;;;9.0;;
61675;SDS011;47574;52.090;5.244;2023-03-12T12:13:39;33.3;;;9.1;;
61675;SDS011;47574;52.090;5.244;2023-03-12T12:15:30;34.21;;;9.4;;
61675;SDS011;47574;52.090;5.244;2023-03-12T12:17:16;35.71;;;9.71;;
61675;SDS011;47574;52.090;5.244;2023-03-12T12:19:09;35.9;;;9.0;;
61675;SDS011;47574;52.090;5.244;2023-03-12T12:20:57;35.21;;;8.9;;
61675;SDS011;47574;52.090;5.244;2023-03-12T12:22:45;39.9;;;9.71;;
61675;SDS011;47574;52.090;5.244;2023-03-12T12:24:36;40.81;;;9.4;;
61675;SDS011;47574;52.090;5.244;2023-03-12T12:28:16;38.71;;;8.6;;
61675;SDS011;47574;52.090;5.244;2023-03-12T12:30:16;43.3;;;9.0;;
61675;SDS011;47574;52.090;5.244;2023-03-12T12:32:03;40.21;;;9.21;;
61675;SDS011;47574;52.090;5.244;2023-03-12T12:33:53;39.4;;;8.6;;
61675;SDS011;47574;52.090;5.244;2023-03-12T12:35:44;36.4;;;8.5;;
61675;SDS011;47574;52.090;5.244;2023-03-12T12:37:22;36.81;;;8.9;;
61675;SDS011;47574;52.090;5.244;2023-03-12T12:40:52;38.0;;;9.0;;
61675;SDS011;47574;52.090;5.244;2023-03-12T12:42:35;42.0;;;9.31;;
61675;SDS011;47574;52.090;5.244;2023-03-12T12:44:24;40.0;;;8.9;;
61675;SDS011;47574;52.090;5.244;2023-03-12T12:46:07;41.6;;;8.9;;
61675;SDS011;47574;52.090;5.244;2023-03-12T12:47:49;37.31;;;8.5;;
61675;SDS011;47574;52.090;5.244;2023-03-12T12:51:19;45.6;;;9.21;;
61675;SDS011;47574;52.090;5.244;2023-03-12T12:53:02;45.0;;;8.5;;
61675;SDS011;47574;52.090;5.244;2023-03-12T12:54:55;41.6;;;9.31;;
61675;SDS011;47574;52.090;5.244;2023-03-12T12:56:39;41.0;;;8.4;;
61675;SDS011;47574;52.090;5.244;2023-03-12T12:58:25;46.9;;;9.71;;
61675;SDS011;47574;52.090;5.244;2023-03-12T13:00:22;38.81;;;8.0;;
61675;SDS011;47574;52.090;5.244;2023-03-12T13:02:30;45.9;;;8.9;;
61675;SDS011;47574;52.090;5.244;2023-03-12T13:05:56;49.0;;;9.31;;
61675;SDS011;47574;52.090;5.244;2023-03-12T13:07:35;45.6;;;9.71;;
61675;SDS011;47574;52.090;5.244;2023-03-12T13:09:12;49.1;;;9.6;;
61675;SDS011;47574;52.090;5.244;2023-03-12T13:10:50;44.0;;;9.4;;
61675;SDS011;47574;52.090;5.244;2023-03-12T13:14:48;40.9;;;9.0;;
61675;SDS011;47574;52.090;5.244;2023-03-12T13:16:28;42.5;;;9.71;;
61675;SDS011;47574;52.090;5.244;2023-03-12T13:18:15;48.1;;;9.6;;
61675;SDS011;47574;52.090;5.244;2023-03-12T13:19:58;42.3;;;8.9;;
61675;SDS011;47574;52.090;5.244;2023-03-12T13:21:49;48.6;;;9.5;;
61675;SDS011;47574;52.090;5.244;2023-03-12T13:23:38;43.7;;;9.0;;